createdAt,value
2022-08-16T00:02:39.691Z,22.93
2022-08-16T00:05:14.283Z,22.87
2022-08-16T00:07:42.994Z,22.83
2022-08-16T00:10:20.706Z,22.80
2022-08-16T00:12:50.091Z,22.79
2022-08-16T00:15:51.371Z,22.71
2022-08-16T00:18:17.636Z,22.85
2022-08-16T00:20:48.267Z,22.92
2022-08-16T00:23:18.956Z,22.79
2022-08-16T00:26:36.291Z,23.02
2022-08-16T00:28:41.590Z,23.02
2022-08-16T00:31:14.184Z,22.98
2022-08-16T00:33:43.047Z,22.84
2022-08-16T00:36:18.729Z,22.82
2022-08-16T00:38:49.477Z,22.70
2022-08-16T00:41:19.329Z,22.62
2022-08-16T00:43:50.538Z,22.60
2022-08-16T00:46:33.931Z,22.63
2022-08-16T00:49:06.491Z,22.66
2022-08-16T00:51:38.592Z,22.70
2022-08-16T00:54:07.584Z,22.75
2022-08-16T00:57:00.066Z,22.79
2022-08-16T00:59:33.016Z,22.76
2022-08-16T01:02:30.815Z,22.78
2022-08-16T01:05:09.095Z,22.76
2022-08-16T01:07:51.823Z,22.76
2022-08-16T01:10:32.293Z,22.75
2022-08-16T01:13:08.368Z,22.75
2022-08-16T01:15:45.541Z,22.72
2022-08-16T01:18:40.659Z,22.71
2022-08-16T01:21:22.799Z,22.69
2022-08-16T01:24:04.801Z,22.49
2022-08-16T01:26:57.555Z,22.64
2022-08-16T01:29:58.409Z,22.69
2022-08-16T01:32:34.217Z,22.67
2022-08-16T01:35:17.450Z,22.66
2022-08-16T01:37:53.187Z,22.64
2022-08-16T01:40:31.354Z,22.59
2022-08-16T01:43:06.231Z,22.54
2022-08-16T01:45:41.502Z,22.51
2022-08-16T01:48:19.729Z,22.43
2022-08-16T01:51:09.679Z,22.33
2022-08-16T01:53:42.117Z,22.29
2022-08-16T01:56:32.654Z,22.30
2022-08-16T01:59:06.068Z,22.30
2022-08-16T02:01:37.126Z,22.29
2022-08-16T02:04:13.173Z,22.18
2022-08-16T02:07:11.292Z,22.12
2022-08-16T02:09:41.208Z,22.01
2022-08-16T02:12:39.738Z,21.93
2022-08-16T02:15:09.106Z,21.83
2022-08-16T02:17:52.680Z,21.80
2022-08-16T02:20:26.466Z,21.77
2022-08-16T02:25:56.396Z,21.77
2022-08-16T02:28:29.293Z,21.85
2022-08-16T02:31:01.298Z,21.86
2022-08-16T02:33:43.560Z,21.85
2022-08-16T02:36:47.236Z,21.76
2022-08-16T02:39:14.726Z,21.69
2022-08-16T02:41:45.939Z,21.67
2022-08-16T02:44:26.851Z,21.81
2022-08-16T02:46:56.856Z,21.88
2022-08-16T02:50:52.176Z,21.90
2022-08-16T02:52:24.687Z,21.83
2022-08-16T02:54:58.412Z,21.87
2022-08-16T02:57:27.606Z,21.83
2022-08-16T03:00:34.553Z,21.81
2022-08-16T03:03:04.134Z,21.72
2022-08-16T03:05:52.527Z,21.64
2022-08-16T03:08:50.214Z,21.59
2022-08-16T03:11:22.050Z,21.45
2022-08-16T03:13:56.499Z,21.62
2022-08-16T03:16:37.793Z,21.59
2022-08-16T03:19:23.476Z,21.58
2022-08-16T03:21:51.930Z,21.55
2022-08-16T03:24:29.019Z,21.55
2022-08-16T03:26:59.704Z,21.55
2022-08-16T03:29:40.305Z,21.59
2022-08-16T03:32:25.160Z,21.56
2022-08-16T03:34:57.203Z,21.51
2022-08-16T03:37:32.661Z,21.46
2022-08-16T03:40:32.909Z,21.41
2022-08-16T03:43:23.602Z,21.34
2022-08-16T03:46:47.259Z,21.29
2022-08-16T03:49:22.443Z,21.29
2022-08-16T03:51:54.891Z,21.29
2022-08-16T03:54:30.641Z,21.25
2022-08-16T03:57:15.733Z,21.25
2022-08-16T03:59:50.973Z,21.30
2022-08-16T04:02:22.399Z,21.28
2022-08-16T04:05:00.701Z,21.28
2022-08-16T04:07:33.363Z,21.26
2022-08-16T04:10:36.329Z,21.23
2022-08-16T04:13:04.461Z,21.20
2022-08-16T04:15:38.300Z,21.19
2022-08-16T04:18:18.036Z,21.24
2022-08-16T04:21:07.553Z,21.29
2022-08-16T04:23:36.503Z,21.27
2022-08-16T04:26:17.030Z,21.29
2022-08-16T04:29:15.283Z,21.19
2022-08-16T04:31:56.284Z,21.31
2022-08-16T04:34:32.502Z,21.35
2022-08-16T04:37:08.108Z,21.32
2022-08-16T04:42:40.384Z,21.34
2022-08-16T04:45:13.661Z,21.36
2022-08-16T04:47:46.890Z,21.34
2022-08-16T04:50:31.753Z,21.48
2022-08-16T04:53:12.579Z,21.59
2022-08-16T04:55:53.732Z,21.65
2022-08-16T04:58:44.782Z,21.68
2022-08-16T05:01:15.530Z,21.78
2022-08-16T05:04:00.569Z,21.83
2022-08-16T05:06:44.666Z,21.86
2022-08-16T05:09:25.404Z,21.88
2022-08-16T05:12:18.061Z,21.89
2022-08-16T05:15:02.019Z,21.98
2022-08-16T05:17:32.624Z,22.03
2022-08-16T05:20:39.367Z,22.08
2022-08-16T05:22:53.122Z,22.09
2022-08-16T05:25:23.754Z,22.08
2022-08-16T05:28:11.828Z,22.06
2022-08-16T05:30:44.189Z,22.57
2022-08-16T05:33:21.117Z,24.12
2022-08-16T05:35:55.733Z,25.52
2022-08-16T05:38:40.719Z,26.59
2022-08-16T05:41:44.602Z,27.18
2022-08-16T05:44:23.804Z,27.32
2022-08-16T05:47:00.223Z,27.75
2022-08-16T05:49:39.920Z,28.26
2022-08-16T05:52:13.640Z,28.61
2022-08-16T05:55:01.011Z,28.81
2022-08-16T05:58:04.462Z,28.64
2022-08-16T06:00:34.924Z,28.33
2022-08-16T06:03:04.858Z,28.06
2022-08-16T06:06:01.863Z,28.08
2022-08-16T06:08:44.772Z,28.36
2022-08-16T06:11:19.082Z,27.57
2022-08-16T06:13:55.931Z,26.28
2022-08-16T06:17:06.091Z,25.31
2022-08-16T06:19:40.469Z,24.94
2022-08-16T06:25:02.094Z,24.93
2022-08-16T06:27:39.541Z,25.11
2022-08-16T06:30:13.447Z,25.21
2022-08-16T06:32:56.730Z,25.38
2022-08-16T06:35:41.691Z,25.19
2022-08-16T06:38:32.647Z,25.23
2022-08-16T06:41:06.704Z,25.12
2022-08-16T06:43:42.333Z,25.02
2022-08-16T06:46:31.915Z,25.02
2022-08-16T06:49:23.352Z,25.13
2022-08-16T06:52:58.491Z,25.22
2022-08-16T06:55:29.859Z,25.34
2022-08-16T06:58:21.898Z,25.20
2022-08-16T07:01:09.936Z,25.23
2022-08-16T07:04:12.282Z,25.05
2022-08-16T07:06:43.906Z,25.07
2022-08-16T07:09:15.986Z,25.00
2022-08-16T07:11:52.289Z,25.09
2022-08-16T07:14:43.186Z,25.08
2022-08-16T07:17:18.289Z,24.91
2022-08-16T07:20:02.727Z,24.93
2022-08-16T07:22:52.843Z,24.85
2022-08-16T07:25:53.050Z,24.81
2022-08-16T07:28:28.285Z,24.74
2022-08-16T07:30:57.535Z,24.80
2022-08-16T07:33:51.766Z,24.68
2022-08-16T07:36:26.552Z,24.72
2022-08-16T07:39:10.085Z,24.66
2022-08-16T07:41:44.781Z,24.65
2022-08-16T07:44:18.724Z,24.70
2022-08-16T07:46:55.609Z,24.73
2022-08-16T07:49:53.271Z,24.74
2022-08-16T07:52:57.013Z,24.82
2022-08-16T07:55:45.986Z,24.82
2022-08-16T07:58:34.444Z,24.83
2022-08-16T08:01:16.483Z,24.89
2022-08-16T08:03:54.373Z,24.87
2022-08-16T08:06:30.113Z,24.82
2022-08-16T08:09:06.136Z,24.98
2022-08-16T08:12:00.671Z,24.89
2022-08-16T08:14:33.227Z,24.77
2022-08-16T08:17:08.695Z,24.70
2022-08-16T08:22:30.727Z,25.06
2022-08-16T08:25:18.312Z,24.75
2022-08-16T08:27:51.718Z,25.04
2022-08-16T08:30:51.277Z,25.15
2022-08-16T08:33:17.906Z,25.23
2022-08-16T08:35:48.904Z,25.25
2022-08-16T08:38:43.660Z,25.32
2022-08-16T08:41:10.500Z,25.37
2022-08-16T08:43:43.003Z,25.43
2022-08-16T08:46:18.356Z,25.39
2022-08-16T08:48:59.529Z,25.49
2022-08-16T08:51:36.942Z,25.62
2022-08-16T08:54:10.073Z,25.67
2022-08-16T08:56:50.428Z,25.82
2022-08-16T08:59:40.673Z,25.82
2022-08-16T09:02:16.598Z,25.83
2022-08-16T09:04:53.025Z,25.99
2022-08-16T09:07:27.081Z,26.14
2022-08-16T09:10:06.279Z,26.25
2022-08-16T09:12:37.487Z,26.39
2022-08-16T09:15:23.892Z,26.40
2022-08-16T09:17:59.831Z,26.40
2022-08-16T09:20:58.748Z,26.48
2022-08-16T09:23:27.965Z,26.42
2022-08-16T09:26:01.379Z,26.49
2022-08-16T09:29:16.687Z,26.57
2022-08-16T09:31:39.186Z,26.65
2022-08-16T09:34:11.192Z,26.56
2022-08-16T09:36:45.032Z,26.61
2022-08-16T09:39:16.072Z,26.72
2022-08-16T09:41:53.155Z,26.86
2022-08-16T09:45:09.459Z,26.99
2022-08-16T09:47:23.358Z,27.01
2022-08-16T09:49:53.159Z,27.07
2022-08-16T09:52:40.484Z,27.02
2022-08-16T09:55:12.565Z,27.08
2022-08-16T09:57:42.649Z,27.20
2022-08-16T10:00:44.489Z,27.30
2022-08-16T10:03:33.118Z,27.40
2022-08-16T10:06:03.031Z,27.48
2022-08-16T10:09:05.045Z,27.73
2022-08-16T10:11:53.064Z,27.90
2022-08-16T10:14:35.328Z,27.93
2022-08-16T10:17:06.204Z,27.97
2022-08-16T10:19:35.699Z,28.07
2022-08-16T10:25:08.933Z,28.37
2022-08-16T10:27:47.112Z,28.40
2022-08-16T10:30:29.719Z,28.52
2022-08-16T10:33:06.797Z,28.67
2022-08-16T10:35:54.995Z,28.61
2022-08-16T10:41:15.978Z,28.86
2022-08-16T10:43:45.182Z,28.94
2022-08-16T10:46:33.928Z,28.92
2022-08-16T10:49:11.658Z,29.02
2022-08-16T10:52:01.632Z,29.06
2022-08-16T10:54:58.614Z,29.10
2022-08-16T10:57:24.590Z,28.95
2022-08-16T10:59:57.837Z,28.86
2022-08-16T11:02:59.696Z,28.98
2022-08-16T11:05:18.012Z,28.99
2022-08-16T11:08:00.285Z,28.64
2022-08-16T11:19:23.562Z,28.55
2022-08-16T11:24:44.901Z,28.78
2022-08-16T11:27:20.073Z,29.12
2022-08-16T11:29:52.161Z,29.58
2022-08-16T11:32:22.730Z,29.89
2022-08-16T11:35:15.816Z,30.09
2022-08-16T11:40:52.335Z,29.89
2022-08-16T11:43:23.667Z,29.82
2022-08-16T11:46:43.724Z,29.66
2022-08-16T11:48:58.398Z,29.32
2022-08-16T11:51:28.711Z,29.07
2022-08-16T11:54:21.739Z,29.07
2022-08-16T11:57:00.930Z,29.05
2022-08-16T11:59:32.751Z,29.15
2022-08-16T12:02:30.729Z,29.30
2022-08-16T12:04:54.571Z,29.56
2022-08-16T12:07:24.175Z,29.40
2022-08-16T12:10:01.334Z,29.21
2022-08-16T12:12:40.657Z,29.05
2022-08-16T12:15:14.155Z,28.93
2022-08-16T12:17:43.915Z,28.73
2022-08-16T12:20:18.933Z,28.63
2022-08-16T12:22:54.215Z,28.54
2022-08-16T12:25:27.370Z,28.40
2022-08-16T12:28:07.558Z,28.26
2022-08-16T12:30:42.339Z,28.34
2022-08-16T12:33:25.653Z,28.66
2022-08-16T12:35:54.319Z,28.89
2022-08-16T12:38:41.072Z,29.06
2022-08-16T12:41:24.302Z,29.36
2022-08-16T12:44:01.372Z,29.44
2022-08-16T12:46:35.898Z,29.47
2022-08-16T12:49:05.786Z,29.55
2022-08-16T12:51:58.400Z,29.85
2022-08-16T12:54:27.486Z,30.07
2022-08-16T12:56:57.825Z,30.27
2022-08-16T12:59:30.965Z,30.45
2022-08-16T13:02:01.472Z,30.64
2022-08-16T13:04:33.354Z,30.88
2022-08-16T13:07:06.104Z,30.99
2022-08-16T13:09:48.874Z,30.96
2022-08-16T13:12:23.758Z,31.05
2022-08-16T13:14:56.973Z,31.21
2022-08-16T13:17:29.897Z,31.25
2022-08-16T13:20:12.508Z,31.54
2022-08-16T13:22:48.967Z,31.73
2022-08-16T13:25:21.437Z,31.79
2022-08-16T13:28:03.339Z,31.68
2022-08-16T13:30:50.480Z,31.63
2022-08-16T13:33:29.575Z,31.39
2022-08-16T13:36:02.017Z,31.29
2022-08-16T13:38:36.965Z,31.37
2022-08-16T13:41:18.676Z,31.36
2022-08-16T13:43:57.341Z,31.55
2022-08-16T13:46:32.058Z,31.76
2022-08-16T13:49:00.805Z,31.88
2022-08-16T13:51:32.118Z,31.93
2022-08-16T13:54:04.389Z,32.02
2022-08-16T13:56:37.394Z,31.94
2022-08-16T13:59:19.161Z,32.22
2022-08-16T14:01:55.062Z,32.13
2022-08-16T14:04:36.511Z,32.31
2022-08-16T14:07:08.164Z,32.11
2022-08-16T14:09:39.981Z,31.56
2022-08-16T14:12:19.200Z,31.28
2022-08-16T14:14:57.295Z,30.92
2022-08-16T14:18:16.055Z,30.72
2022-08-16T14:20:20.621Z,30.57
2022-08-16T14:22:52.530Z,30.69
2022-08-16T14:25:24.445Z,30.88
2022-08-16T14:27:54.550Z,30.98
2022-08-16T14:30:25.017Z,31.20
2022-08-16T14:33:04.319Z,31.00
2022-08-16T14:35:49.004Z,30.76
2022-08-16T14:38:23.789Z,30.62
2022-08-16T14:40:55.892Z,30.60
2022-08-16T14:43:30.873Z,30.77
2022-08-16T14:45:59.182Z,30.92
2022-08-16T14:48:31.026Z,30.89
2022-08-16T14:50:59.009Z,30.92
2022-08-16T14:53:28.135Z,30.70
2022-08-16T14:55:57.172Z,30.48
2022-08-16T14:58:36.864Z,30.50
2022-08-16T15:01:09.757Z,30.63
2022-08-16T15:03:42.399Z,30.65
2022-08-16T15:06:16.365Z,30.49
2022-08-16T15:08:47.331Z,30.16
2022-08-16T15:11:18.078Z,29.94
2022-08-16T15:13:49.459Z,29.96
2022-08-16T15:16:31.991Z,30.11
2022-08-16T15:19:03.357Z,30.43
2022-08-16T15:21:39.322Z,30.38
2022-08-16T15:24:16.742Z,30.23
2022-08-16T15:26:55.731Z,30.21
2022-08-16T15:29:24.187Z,30.30
2022-08-16T15:31:57.728Z,30.25
2022-08-16T15:34:30.548Z,30.16
2022-08-16T15:37:01.420Z,30.06
2022-08-16T15:39:39.374Z,30.22
2022-08-16T15:42:28.695Z,30.33
2022-08-16T15:44:58.965Z,30.40
2022-08-16T15:47:34.687Z,30.30
2022-08-16T15:50:08.471Z,30.49
2022-08-16T15:52:43.076Z,30.42
2022-08-16T15:55:34.808Z,30.55
2022-08-16T15:58:34.995Z,30.50
2022-08-16T16:00:58.943Z,30.48
2022-08-16T16:03:29.963Z,30.57
2022-08-16T16:06:08.456Z,30.59
2022-08-16T16:08:36.348Z,30.38
2022-08-16T16:11:09.626Z,30.24
2022-08-16T16:13:37.894Z,30.03
2022-08-16T16:16:16.581Z,30.01
2022-08-16T16:19:06.735Z,30.18
2022-08-16T16:21:39.365Z,30.37
2022-08-16T16:24:21.612Z,30.49
2022-08-16T16:27:08.577Z,30.54
2022-08-16T16:29:37.199Z,30.57
2022-08-16T16:32:11.314Z,30.59
2022-08-16T16:34:43.151Z,30.62
2022-08-16T16:37:18.159Z,30.62
2022-08-16T16:40:01.337Z,30.49
2022-08-16T16:42:44.672Z,30.34
2022-08-16T16:45:14.456Z,30.13
2022-08-16T16:47:42.947Z,29.91
2022-08-16T16:50:16.184Z,29.67
2022-08-16T16:52:46.722Z,29.47
2022-08-16T16:55:23.156Z,29.30
2022-08-16T16:58:07.596Z,29.25
2022-08-16T17:00:51.606Z,29.20
2022-08-16T17:03:26.272Z,29.06
2022-08-16T17:06:08.867Z,28.90
2022-08-16T17:08:41.917Z,28.84
2022-08-16T17:11:10.254Z,28.84
2022-08-16T17:13:39.319Z,28.83
2022-08-16T17:16:18.628Z,28.81
2022-08-16T17:19:17.055Z,28.77
2022-08-16T17:21:37.145Z,28.73
2022-08-16T17:24:17.841Z,28.69
2022-08-16T17:26:49.124Z,28.63
2022-08-16T17:29:32.902Z,28.53
2022-08-16T17:32:34.267Z,28.51
2022-08-16T17:35:00.339Z,28.45
2022-08-16T17:37:42.282Z,28.43
2022-08-16T17:40:40.848Z,28.36
2022-08-16T17:43:13.475Z,28.27
2022-08-16T17:45:44.653Z,28.21
2022-08-16T17:48:13.236Z,28.17
2022-08-16T17:50:42.228Z,28.08
2022-08-16T17:53:35.540Z,28.08
2022-08-16T17:56:12.935Z,28.04
2022-08-16T17:58:41.028Z,28.02
2022-08-16T18:01:13.997Z,27.95
2022-08-16T18:04:06.937Z,27.90
2022-08-16T18:06:30.832Z,27.83
2022-08-16T18:09:26.256Z,27.78
2022-08-16T18:12:00.148Z,27.73
2022-08-16T18:14:51.042Z,27.67
2022-08-16T18:17:19.462Z,27.62
2022-08-16T18:19:47.516Z,27.59
2022-08-16T18:22:30.197Z,27.54
2022-08-16T18:25:02.608Z,27.48
2022-08-16T18:27:40.990Z,27.46
2022-08-16T18:30:18.951Z,27.44
2022-08-16T18:32:52.893Z,27.36
2022-08-16T18:35:21.855Z,27.30
2022-08-16T18:38:02.014Z,27.24
2022-08-16T18:40:30.730Z,27.16
2022-08-16T18:43:03.095Z,27.09
2022-08-16T18:45:56.600Z,27.03
2022-08-16T18:48:27.395Z,26.95
2022-08-16T18:51:14.669Z,26.87
2022-08-16T18:54:03.675Z,26.77
2022-08-16T18:56:56.129Z,26.70
2022-08-16T18:59:21.739Z,26.66
2022-08-16T19:02:56.780Z,26.64
2022-08-16T19:05:15.179Z,26.63
2022-08-16T19:08:08.986Z,26.58
2022-08-16T19:10:40.805Z,26.50
2022-08-16T19:13:17.568Z,26.40
2022-08-16T19:15:48.493Z,26.44
2022-08-16T19:18:16.518Z,26.38
2022-08-16T19:20:45.696Z,26.36
2022-08-16T19:23:19.659Z,26.30
2022-08-16T19:26:02.948Z,26.29
2022-08-16T19:28:51.365Z,26.24
2022-08-16T19:31:31.609Z,26.24
2022-08-16T19:34:03.911Z,26.21
2022-08-16T19:36:35.882Z,26.17
2022-08-16T19:39:09.038Z,26.12
2022-08-16T19:41:43.743Z,26.06
2022-08-16T19:44:12.049Z,26.03
2022-08-16T19:46:44.827Z,25.99
2022-08-16T19:49:16.066Z,25.95
2022-08-16T19:51:51.553Z,25.92
2022-08-16T19:54:19.549Z,25.84
2022-08-16T19:56:50.524Z,25.76
2022-08-16T19:59:20.488Z,25.74
2022-08-16T20:01:54.026Z,25.68
2022-08-16T20:04:22.774Z,25.62
2022-08-16T20:06:52.338Z,25.54
2022-08-16T20:09:21.208Z,25.46
2022-08-16T20:11:52.031Z,25.43
2022-08-16T20:14:25.274Z,25.29
2022-08-16T20:16:57.083Z,25.34
2022-08-16T20:19:27.135Z,25.30
2022-08-16T20:21:56.424Z,25.22
2022-08-16T20:24:40.158Z,25.18
2022-08-16T20:27:09.814Z,25.07
2022-08-16T20:29:39.822Z,25.04
2022-08-16T20:32:12.546Z,24.95
2022-08-16T20:34:42.068Z,24.91
2022-08-16T20:37:12.680Z,24.85
2022-08-16T20:39:44.075Z,24.82
2022-08-16T20:42:13.455Z,24.81
2022-08-16T20:44:42.533Z,24.80
2022-08-16T20:47:11.890Z,24.79
2022-08-16T20:49:39.817Z,24.78
2022-08-16T20:52:09.092Z,24.76
2022-08-16T20:54:38.233Z,24.74
2022-08-16T20:57:06.985Z,24.74
2022-08-16T20:59:35.163Z,24.73
2022-08-16T21:02:03.641Z,24.71
2022-08-16T21:04:33.315Z,24.70
2022-08-16T21:07:01.573Z,24.71
2022-08-16T21:09:33.554Z,24.70
2022-08-16T21:12:04.107Z,24.65
2022-08-16T21:14:34.277Z,24.64
2022-08-16T21:17:03.164Z,24.64
2022-08-16T21:19:33.219Z,24.61
2022-08-16T21:22:12.013Z,24.59
2022-08-16T21:24:40.137Z,24.56
2022-08-16T21:27:08.373Z,24.47
2022-08-16T21:29:42.844Z,24.50
2022-08-16T21:32:12.493Z,24.47
2022-08-16T21:34:42.862Z,24.48
2022-08-16T21:37:11.595Z,24.43
2022-08-16T21:39:44.067Z,24.43
2022-08-16T21:42:14.693Z,24.40
2022-08-16T21:44:43.398Z,24.40
2022-08-16T21:47:11.959Z,24.36
2022-08-16T21:49:41.296Z,24.33
2022-08-16T21:52:10.047Z,24.30
2022-08-16T21:54:56.721Z,24.30
2022-08-16T21:57:25.195Z,24.26
2022-08-16T21:59:54.890Z,24.23
2022-08-16T22:02:25.539Z,24.24
2022-08-16T22:04:55.897Z,24.17
2022-08-16T22:07:23.809Z,24.19
2022-08-16T22:09:52.295Z,24.15
2022-08-16T22:12:27.663Z,24.15
2022-08-16T22:14:55.675Z,24.14
2022-08-16T22:17:23.606Z,24.11
2022-08-16T22:19:54.696Z,24.13
2022-08-16T22:22:22.709Z,24.10
2022-08-16T22:24:50.723Z,24.08
2022-08-16T22:27:18.694Z,24.01
2022-08-16T22:29:46.811Z,23.93
2022-08-16T22:32:15.364Z,23.90
2022-08-16T22:34:43.572Z,23.87
2022-08-16T22:37:13.130Z,23.86
2022-08-16T22:39:41.270Z,23.76
2022-08-16T22:42:10.789Z,23.73
2022-08-16T22:44:42.949Z,23.74
2022-08-16T22:47:14.610Z,23.75
2022-08-16T22:49:42.827Z,23.81
2022-08-16T22:52:12.138Z,23.79
2022-08-16T22:54:48.731Z,23.67
2022-08-16T22:57:17.254Z,23.71
2022-08-16T22:59:45.230Z,23.65
2022-08-16T23:02:13.215Z,23.63
2022-08-16T23:04:41.187Z,23.62
2022-08-16T23:07:09.064Z,23.60
2022-08-16T23:09:38.521Z,23.52
2022-08-16T23:12:07.342Z,23.49
2022-08-16T23:14:35.322Z,23.53
2022-08-16T23:17:03.485Z,23.49
2022-08-16T23:19:31.617Z,23.47
2022-08-16T23:22:00.677Z,23.49
2022-08-16T23:24:28.859Z,23.54
2022-08-16T23:26:58.251Z,23.43
2022-08-16T23:29:26.802Z,23.52
2022-08-16T23:31:57.543Z,23.52
2022-08-16T23:34:27.789Z,23.52
2022-08-16T23:36:56.509Z,23.48
2022-08-16T23:39:25.123Z,23.47
2022-08-16T23:41:53.207Z,23.44
2022-08-16T23:44:57.468Z,23.40
2022-08-16T23:47:11.023Z,23.38
2022-08-16T23:50:01.155Z,23.26
2022-08-16T23:52:53.209Z,23.25
2022-08-16T23:55:17.001Z,23.21
2022-08-16T23:57:45.522Z,23.12
